createdAt,value
2019-02-18T00:00:54.620Z,5.10
2019-02-18T00:03:23.146Z,4.83
2019-02-18T00:05:51.599Z,5.00
2019-02-18T00:08:20.144Z,4.85
2019-02-18T00:10:48.673Z,4.70
2019-02-18T00:13:17.198Z,4.10
2019-02-18T00:15:45.881Z,4.53
2019-02-18T00:18:14.405Z,4.47
2019-02-18T00:20:42.938Z,4.67
2019-02-18T00:23:11.391Z,3.87
2019-02-18T00:25:39.936Z,4.28
2019-02-18T00:28:08.459Z,5.00
2019-02-18T00:30:36.988Z,4.08
2019-02-18T00:33:05.602Z,5.58
2019-02-18T00:35:34.137Z,4.60
2019-02-18T00:38:02.671Z,4.75
2019-02-18T00:40:31.263Z,4.12
2019-02-18T00:42:59.744Z,4.60
2019-02-18T00:45:28.270Z,4.30
2019-02-18T00:47:56.826Z,4.85
2019-02-18T00:50:25.418Z,4.50
2019-02-18T00:52:53.866Z,4.87
2019-02-18T00:55:22.345Z,4.62
2019-02-18T00:57:50.870Z,4.80
2019-02-18T01:00:19.478Z,5.17
2019-02-18T01:02:48.063Z,4.67
2019-02-18T01:05:16.749Z,3.60
2019-02-18T01:07:45.615Z,3.65
2019-02-18T01:10:14.309Z,5.05
2019-02-18T01:12:42.823Z,4.53
2019-02-18T01:15:13.759Z,3.70
2019-02-18T01:17:42.374Z,4.50
2019-02-18T01:20:12.859Z,3.95
2019-02-18T01:22:41.335Z,3.98
2019-02-18T01:25:12.390Z,4.45
2019-02-18T01:27:40.930Z,3.40
2019-02-18T01:30:17.227Z,4.00
2019-02-18T01:32:45.912Z,3.65
2019-02-18T01:35:14.675Z,3.90
2019-02-18T01:37:46.175Z,3.65
2019-02-18T01:40:14.531Z,3.65
2019-02-18T01:42:42.987Z,3.85
2019-02-18T01:45:13.667Z,4.00
2019-02-18T01:47:42.266Z,3.85
2019-02-18T01:50:15.208Z,4.28
2019-02-18T01:52:43.802Z,3.95
2019-02-18T01:55:13.482Z,4.12
2019-02-18T01:57:42.006Z,3.45
2019-02-18T02:00:15.670Z,3.87
2019-02-18T02:02:44.346Z,3.55
2019-02-18T02:05:14.441Z,3.70
2019-02-18T02:07:43.123Z,3.72
2019-02-18T02:10:14.386Z,3.50
2019-02-18T02:12:42.854Z,3.20
2019-02-18T02:15:17.211Z,3.80
2019-02-18T02:17:45.755Z,3.80
2019-02-18T02:20:14.270Z,3.52
2019-02-18T02:22:42.720Z,3.22
2019-02-18T02:25:11.399Z,4.00
2019-02-18T02:27:39.923Z,3.67
2019-02-18T02:30:10.133Z,3.60
2019-02-18T02:32:38.663Z,3.10
2019-02-18T02:35:07.275Z,2.90
2019-02-18T02:37:35.831Z,2.95
2019-02-18T02:40:06.910Z,2.98
2019-02-18T02:42:35.362Z,2.92
2019-02-18T02:45:04.770Z,3.50
2019-02-18T02:47:33.309Z,3.47
2019-02-18T02:50:01.857Z,3.22
2019-02-18T02:52:30.408Z,2.80
2019-02-18T02:54:58.935Z,3.10
2019-02-18T02:57:27.484Z,3.20
2019-02-18T02:59:56.003Z,4.03
2019-02-18T03:02:24.450Z,3.25
2019-02-18T03:04:53.000Z,3.42
2019-02-18T03:07:21.514Z,3.90
2019-02-18T03:09:49.992Z,4.40
2019-02-18T03:12:18.527Z,3.33
2019-02-18T03:14:47.058Z,4.55
2019-02-18T03:17:15.585Z,4.60
2019-02-18T03:19:44.123Z,4.20
2019-02-18T03:22:12.570Z,4.33
2019-02-18T03:24:44.132Z,4.90
2019-02-18T03:27:12.655Z,4.85
2019-02-18T03:29:56.044Z,4.17
2019-02-18T03:32:24.580Z,5.40
2019-02-18T03:34:53.104Z,4.15
2019-02-18T03:37:21.643Z,3.45
2019-02-18T03:39:50.098Z,3.83
2019-02-18T03:42:18.646Z,3.12
2019-02-18T03:44:47.162Z,4.33
2019-02-18T03:47:15.707Z,4.37
2019-02-18T03:49:44.237Z,4.40
2019-02-18T03:52:12.764Z,3.10
2019-02-18T03:54:41.450Z,3.45
2019-02-18T03:57:10.040Z,3.90
2019-02-18T03:59:38.495Z,3.67
2019-02-18T04:02:07.180Z,3.70
2019-02-18T04:04:35.772Z,3.65
2019-02-18T04:07:04.322Z,3.47
2019-02-18T04:09:32.775Z,3.00
2019-02-18T04:12:01.315Z,2.92
2019-02-18T04:14:29.904Z,3.15
2019-02-18T04:16:58.514Z,3.67
2019-02-18T04:19:26.995Z,3.98
2019-02-18T04:21:55.527Z,3.02
2019-02-18T04:24:24.071Z,3.72
2019-02-18T04:26:52.590Z,3.62
2019-02-18T04:29:21.035Z,3.12
2019-02-18T04:31:49.508Z,3.15
2019-02-18T04:34:18.033Z,3.12
2019-02-18T04:36:46.593Z,2.65
2019-02-18T04:39:15.107Z,3.77
2019-02-18T04:41:44.230Z,3.58
2019-02-18T04:44:12.710Z,3.02
2019-02-18T04:46:41.222Z,3.55
2019-02-18T04:49:09.690Z,2.95
2019-02-18T04:51:38.146Z,3.30
2019-02-18T04:54:06.711Z,2.85
2019-02-18T04:56:35.219Z,3.35
2019-02-18T04:59:04.173Z,3.10
2019-02-18T05:01:32.682Z,2.55
2019-02-18T05:04:01.210Z,2.80
2019-02-18T05:06:29.764Z,3.42
2019-02-18T05:09:05.300Z,2.98
2019-02-18T05:11:28.483Z,3.10
2019-02-18T05:13:57.011Z,2.90
2019-02-18T05:16:25.534Z,2.98
2019-02-18T05:18:54.152Z,2.80
2019-02-18T05:21:22.677Z,2.80
2019-02-18T05:23:51.200Z,3.08
2019-02-18T05:26:19.744Z,2.95
2019-02-18T05:28:48.263Z,2.55
2019-02-18T05:31:16.803Z,3.27
2019-02-18T05:33:45.261Z,2.77
2019-02-18T05:36:13.798Z,2.92
2019-02-18T05:38:42.252Z,3.00
2019-02-18T05:41:10.788Z,2.75
2019-02-18T05:43:39.320Z,3.02
2019-02-18T05:46:08.787Z,2.72
2019-02-18T05:48:37.486Z,2.35
2019-02-18T05:51:06.010Z,2.83
2019-02-18T05:53:34.484Z,2.00
2019-02-18T05:56:03.078Z,2.33
2019-02-18T05:58:31.792Z,2.90
2019-02-18T06:01:00.327Z,2.62
2019-02-18T06:03:28.858Z,2.50
2019-02-18T06:05:57.311Z,3.20
2019-02-18T06:08:25.784Z,3.55
2019-02-18T06:10:54.303Z,2.65
2019-02-18T06:13:22.864Z,2.30
2019-02-18T06:15:51.408Z,2.00
2019-02-18T06:18:19.931Z,2.05
2019-02-18T06:20:48.476Z,2.65
2019-02-18T06:23:17.010Z,2.90
2019-02-18T06:25:45.552Z,2.40
2019-02-18T06:28:14.079Z,2.27
2019-02-18T06:30:42.681Z,2.10
2019-02-18T06:33:11.144Z,2.20
2019-02-18T06:35:39.683Z,2.00
2019-02-18T06:38:08.214Z,2.83
2019-02-18T06:40:36.756Z,2.45
2019-02-18T06:43:05.279Z,3.00
2019-02-18T06:45:47.361Z,2.90
2019-02-18T06:48:23.454Z,2.30
2019-02-18T06:50:52.006Z,3.30
2019-02-18T06:53:20.528Z,1.85
2019-02-18T06:55:49.071Z,1.95
2019-02-18T06:58:19.242Z,2.87
2019-02-18T07:00:58.246Z,1.77
2019-02-18T07:03:28.410Z,2.10
2019-02-18T07:06:07.503Z,2.25
2019-02-18T07:08:40.586Z,1.87
2019-02-18T07:11:26.145Z,2.40
2019-02-18T07:13:54.667Z,2.22
2019-02-18T07:16:28.617Z,2.08
2019-02-18T07:18:57.155Z,2.22
2019-02-18T07:21:25.618Z,1.90
2019-02-18T07:23:54.146Z,3.45
2019-02-18T07:26:22.599Z,3.70
2019-02-18T07:28:51.203Z,2.87
2019-02-18T07:31:19.721Z,3.00
2019-02-18T07:33:48.266Z,3.35
2019-02-18T07:36:16.782Z,3.12
2019-02-18T07:38:45.311Z,5.00
2019-02-18T07:41:13.863Z,4.00
2019-02-18T07:43:42.387Z,3.70
2019-02-18T07:46:10.947Z,2.77
2019-02-18T07:48:39.452Z,3.35
2019-02-18T07:51:07.973Z,3.00
2019-02-18T07:53:36.508Z,3.33
2019-02-18T07:56:05.095Z,3.02
2019-02-18T07:58:33.710Z,2.77
2019-02-18T08:01:02.308Z,2.72
2019-02-18T08:03:30.844Z,2.83
2019-02-18T08:05:59.364Z,3.92
2019-02-18T08:08:27.902Z,2.80
2019-02-18T08:10:56.430Z,2.80
2019-02-18T08:13:26.727Z,2.80
2019-02-18T08:15:55.135Z,3.20
2019-02-18T08:18:23.586Z,2.58
2019-02-18T08:20:52.067Z,2.87
2019-02-18T08:23:20.591Z,2.40
2019-02-18T08:25:49.139Z,2.05
2019-02-18T08:28:17.675Z,4.58
2019-02-18T08:30:46.215Z,2.60
2019-02-18T08:33:14.663Z,2.45
2019-02-18T08:35:43.234Z,3.02
2019-02-18T08:38:11.759Z,2.92
2019-02-18T08:40:40.212Z,2.67
2019-02-18T08:43:08.759Z,2.60
2019-02-18T08:45:37.290Z,3.15
2019-02-18T08:48:05.838Z,2.58
2019-02-18T08:50:34.289Z,2.90
2019-02-18T08:53:02.841Z,2.60
2019-02-18T08:55:31.356Z,2.47
2019-02-18T08:57:59.909Z,2.47
2019-02-18T09:00:28.428Z,2.57
2019-02-18T09:02:56.991Z,2.73
2019-02-18T09:05:25.523Z,3.37
2019-02-18T09:07:54.050Z,2.67
2019-02-18T09:10:32.701Z,2.73
2019-02-18T09:12:52.695Z,3.00
2019-02-18T09:15:21.251Z,2.90
2019-02-18T09:17:49.779Z,3.50
2019-02-18T09:20:18.318Z,4.30
2019-02-18T09:22:57.513Z,4.57
2019-02-18T09:25:30.305Z,4.17
2019-02-18T09:27:58.839Z,3.50
2019-02-18T09:30:29.103Z,4.77
2019-02-18T09:32:57.627Z,3.47
2019-02-18T09:35:26.185Z,4.00
2019-02-18T09:37:54.721Z,4.33
2019-02-18T09:40:23.238Z,4.17
2019-02-18T09:42:51.860Z,3.60
2019-02-18T09:45:20.383Z,3.13
2019-02-18T09:47:49.063Z,3.43
2019-02-18T09:50:17.600Z,3.00
2019-02-18T09:52:46.121Z,2.57
2019-02-18T09:55:14.670Z,1.90
2019-02-18T09:57:44.739Z,2.53
2019-02-18T10:00:13.883Z,1.60
2019-02-18T10:02:42.370Z,1.87
2019-02-18T10:05:10.983Z,1.30
2019-02-18T10:07:39.515Z,1.47
2019-02-18T10:10:11.611Z,1.53
2019-02-18T10:12:40.124Z,1.77
2019-02-18T10:15:10.818Z,1.07
2019-02-18T10:17:39.339Z,2.57
2019-02-18T10:20:12.024Z,1.30
2019-02-18T10:22:40.720Z,1.40
2019-02-18T10:25:11.378Z,1.17
2019-02-18T10:27:39.932Z,1.67
2019-02-18T10:30:10.568Z,1.50
2019-02-18T10:32:39.407Z,1.20
2019-02-18T10:35:12.180Z,1.13
2019-02-18T10:37:40.737Z,1.00
2019-02-18T10:40:10.488Z,0.70
2019-02-18T10:42:39.103Z,1.00
2019-02-18T10:45:10.573Z,1.00
2019-02-18T10:47:39.188Z,1.20
2019-02-18T10:50:10.121Z,1.20
2019-02-18T10:52:38.709Z,0.93
2019-02-18T10:55:09.476Z,1.33
2019-02-18T10:57:38.452Z,1.17
2019-02-18T11:00:10.275Z,1.00
2019-02-18T11:02:38.803Z,1.30
2019-02-18T11:05:08.300Z,1.00
2019-02-18T11:07:36.820Z,0.90
2019-02-18T11:10:08.675Z,1.10
2019-02-18T11:12:37.203Z,0.93
2019-02-18T11:15:07.463Z,1.00
2019-02-18T11:17:38.902Z,1.40
2019-02-18T11:20:08.539Z,2.10
2019-02-18T11:22:37.084Z,1.30
2019-02-18T11:25:14.494Z,2.20
2019-02-18T11:27:43.051Z,2.13
2019-02-18T11:30:16.261Z,1.97
2019-02-18T11:32:44.808Z,2.10
2019-02-18T11:35:13.475Z,1.83
2019-02-18T11:37:42.147Z,1.60
2019-02-18T11:40:19.734Z,2.50
2019-02-18T11:42:48.252Z,1.93
2019-02-18T11:45:17.434Z,2.07
2019-02-18T11:47:45.955Z,2.30
2019-02-18T11:50:17.679Z,2.50
2019-02-18T11:52:46.209Z,2.10
2019-02-18T11:55:15.118Z,3.30
2019-02-18T11:57:44.113Z,2.80
2019-02-18T12:00:14.295Z,3.33
2019-02-18T12:02:43.362Z,2.37
2019-02-18T12:05:12.029Z,2.40
2019-02-18T12:07:40.719Z,2.70
2019-02-18T12:10:10.990Z,2.50
2019-02-18T12:12:40.057Z,2.87
2019-02-18T12:15:11.603Z,2.43
2019-02-18T12:17:40.448Z,3.17
2019-02-18T12:20:11.423Z,2.30
2019-02-18T12:22:40.503Z,2.97
2019-02-18T12:25:09.974Z,2.37
2019-02-18T12:27:38.800Z,2.93
2019-02-18T12:30:17.525Z,1.57
2019-02-18T12:32:46.046Z,1.67
2019-02-18T12:35:14.739Z,1.23
2019-02-18T12:37:43.278Z,1.43
2019-02-18T12:40:15.252Z,1.97
2019-02-18T12:42:43.779Z,1.60
2019-02-18T12:45:12.847Z,1.90
2019-02-18T12:47:41.711Z,1.90
2019-02-18T12:50:11.639Z,1.70
2019-02-18T12:52:40.305Z,1.70
2019-02-18T12:55:10.243Z,1.30
2019-02-18T12:57:39.240Z,0.93
2019-02-18T13:00:13.918Z,1.10
2019-02-18T13:02:44.736Z,1.70
2019-02-18T13:05:13.593Z,1.80
2019-02-18T13:07:42.242Z,1.90
2019-02-18T13:10:11.795Z,1.50
2019-02-18T13:12:40.718Z,1.60
2019-02-18T13:15:14.766Z,1.50
2019-02-18T13:17:43.387Z,1.40
2019-02-18T13:20:12.065Z,1.80
2019-02-18T13:22:40.619Z,1.50
2019-02-18T13:25:10.182Z,1.87
2019-02-18T13:27:38.738Z,1.83
2019-02-18T13:30:16.484Z,1.70
2019-02-18T13:32:45.029Z,1.10
2019-02-18T13:35:13.624Z,1.40
2019-02-18T13:37:42.169Z,1.63
2019-02-18T13:40:13.437Z,1.77
2019-02-18T13:42:42.341Z,1.33
2019-02-18T13:45:10.945Z,1.50
2019-02-18T13:47:39.565Z,2.43
2019-02-18T13:50:10.660Z,1.97
2019-02-18T13:52:39.187Z,2.10
2019-02-18T13:55:09.875Z,1.70
2019-02-18T13:57:38.699Z,1.20
2019-02-18T14:00:14.699Z,0.97
2019-02-18T14:02:43.226Z,1.10
2019-02-18T14:05:11.884Z,0.83
2019-02-18T14:07:40.445Z,0.60
2019-02-18T14:10:09.111Z,0.80
2019-02-18T14:12:37.958Z,0.90
2019-02-18T14:15:10.191Z,0.80
2019-02-18T14:17:38.804Z,1.27
2019-02-18T14:20:10.042Z,0.87
2019-02-18T14:22:38.724Z,1.00
2019-02-18T14:25:09.086Z,1.00
2019-02-18T14:27:37.752Z,0.87
2019-02-18T14:30:17.349Z,0.80
2019-02-18T14:32:46.008Z,0.80
2019-02-18T14:35:17.271Z,0.70
2019-02-18T14:37:46.429Z,0.60
2019-02-18T14:40:17.650Z,0.73
2019-02-18T14:42:46.319Z,1.40
2019-02-18T14:45:15.370Z,1.47
2019-02-18T14:47:43.896Z,1.30
2019-02-18T14:50:12.988Z,1.17
2019-02-18T14:52:41.587Z,1.20
2019-02-18T14:55:10.243Z,1.27
2019-02-18T14:57:39.034Z,1.23
2019-02-18T15:00:10.711Z,1.40
2019-02-18T15:02:39.332Z,1.27
2019-02-18T15:05:08.022Z,1.30
2019-02-18T15:07:36.528Z,1.17
2019-02-18T15:10:07.596Z,1.33
2019-02-18T15:12:36.210Z,1.30
2019-02-18T15:15:05.779Z,1.57
2019-02-18T15:17:34.387Z,2.57
2019-02-18T15:20:02.915Z,1.37
2019-02-18T15:22:31.520Z,1.53
2019-02-18T15:25:00.214Z,1.53
2019-02-18T15:27:28.763Z,1.00
2019-02-18T15:29:57.380Z,1.67
2019-02-18T15:32:25.909Z,1.90
2019-02-18T15:34:54.524Z,1.73
2019-02-18T15:37:25.591Z,1.60
2019-02-18T15:39:54.558Z,1.30
2019-02-18T15:42:23.116Z,1.60
2019-02-18T15:44:52.022Z,1.53
2019-02-18T15:47:21.008Z,1.53
2019-02-18T15:49:49.542Z,1.63
2019-02-18T15:52:18.090Z,2.00
2019-02-18T15:54:47.814Z,2.00
2019-02-18T15:57:16.476Z,2.23
2019-02-18T15:59:45.003Z,1.73
2019-02-18T16:02:13.527Z,2.90
2019-02-18T16:04:42.080Z,2.80
2019-02-18T16:07:10.674Z,4.07
2019-02-18T16:09:39.624Z,3.77
2019-02-18T16:12:08.219Z,4.00
2019-02-18T16:14:36.815Z,3.10
2019-02-18T16:17:06.419Z,3.10
2019-02-18T16:19:34.879Z,1.83
2019-02-18T16:22:03.488Z,2.10
2019-02-18T16:24:32.020Z,1.90
2019-02-18T16:27:00.562Z,1.70
2019-02-18T16:29:29.259Z,2.87
2019-02-18T16:31:57.935Z,1.73
2019-02-18T16:34:27.761Z,1.87
2019-02-18T16:36:56.291Z,2.70
2019-02-18T16:39:26.617Z,1.90
2019-02-18T16:41:55.043Z,2.33
2019-02-18T16:44:23.566Z,2.63
2019-02-18T16:46:52.118Z,2.67
2019-02-18T16:49:20.676Z,5.10
2019-02-18T16:51:50.175Z,16.90
2019-02-18T16:54:18.882Z,14.13
2019-02-18T16:56:47.627Z,5.80
2019-02-18T16:59:16.558Z,16.00
2019-02-18T17:01:45.696Z,5.23
2019-02-18T17:04:14.734Z,4.27
2019-02-18T17:06:43.444Z,5.30
2019-02-18T17:09:13.043Z,18.40
2019-02-18T17:11:42.060Z,49.77
2019-02-18T17:14:11.061Z,69.43
2019-02-18T17:16:40.102Z,105.53
2019-02-18T17:19:13.266Z,92.53
2019-02-18T17:21:41.777Z,47.60
2019-02-18T17:24:10.456Z,39.13
2019-02-18T17:26:39.472Z,27.43
2019-02-18T17:29:08.519Z,36.20
2019-02-18T17:31:37.167Z,15.07
2019-02-18T17:34:05.905Z,5.97
2019-02-18T17:36:34.849Z,5.10
2019-02-18T17:39:04.777Z,11.37
2019-02-18T17:41:33.718Z,8.83
2019-02-18T17:44:02.390Z,6.27
2019-02-18T17:46:30.883Z,6.87
2019-02-18T17:48:59.429Z,6.47
2019-02-18T17:51:27.964Z,5.50
2019-02-18T17:53:57.192Z,6.70
2019-02-18T17:56:26.124Z,7.17
2019-02-18T17:58:54.703Z,7.80
2019-02-18T18:01:23.235Z,6.92
2019-02-18T18:03:51.788Z,7.55
2019-02-18T18:06:21.615Z,11.70
2019-02-18T18:08:50.169Z,14.35
2019-02-18T18:11:18.724Z,10.28
2019-02-18T18:13:47.546Z,9.20
2019-02-18T18:16:16.094Z,10.40
2019-02-18T18:18:44.694Z,10.30
2019-02-18T18:21:13.224Z,9.98
2019-02-18T18:23:41.780Z,12.15
2019-02-18T18:26:10.307Z,8.60
2019-02-18T18:28:39.063Z,8.98
2019-02-18T18:31:07.593Z,8.20
2019-02-18T18:33:36.118Z,9.00
2019-02-18T18:36:04.726Z,8.00
2019-02-18T18:38:33.323Z,9.18
2019-02-18T18:41:01.872Z,9.93
2019-02-18T18:43:33.769Z,9.33
2019-02-18T18:46:00.851Z,11.88
2019-02-18T18:48:29.386Z,12.35
2019-02-18T18:50:57.929Z,18.45
2019-02-18T18:53:26.387Z,32.60
2019-02-18T18:55:54.982Z,24.43
2019-02-18T18:58:23.539Z,15.80
2019-02-18T19:00:52.139Z,17.98
2019-02-18T19:03:20.697Z,15.60
2019-02-18T19:05:49.224Z,15.93
2019-02-18T19:08:17.992Z,14.43
2019-02-18T19:10:46.538Z,11.97
2019-02-18T19:13:15.075Z,12.03
2019-02-18T19:15:49.512Z,9.65
2019-02-18T19:18:13.780Z,9.33
2019-02-18T19:20:42.316Z,8.05
2019-02-18T19:23:10.870Z,7.37
2019-02-18T19:25:39.403Z,8.35
2019-02-18T19:28:07.940Z,8.73
2019-02-18T19:30:36.486Z,10.93
2019-02-18T19:33:05.160Z,11.00
2019-02-18T19:35:33.695Z,12.07
2019-02-18T19:38:02.233Z,11.03
2019-02-18T19:40:30.776Z,13.25
2019-02-18T19:42:59.295Z,13.78
2019-02-18T19:45:27.852Z,12.75
2019-02-18T19:47:56.480Z,12.47
2019-02-18T19:50:25.026Z,11.30
2019-02-18T19:53:05.647Z,10.68
2019-02-18T19:55:34.175Z,9.85
2019-02-18T19:58:03.783Z,10.05
2019-02-18T20:00:32.442Z,10.40
2019-02-18T20:03:01.064Z,10.28
2019-02-18T20:05:29.602Z,9.83
2019-02-18T20:07:58.198Z,12.50
2019-02-18T20:10:26.816Z,9.33
2019-02-18T20:12:55.534Z,8.68
2019-02-18T20:15:24.318Z,6.85
2019-02-18T20:17:53.063Z,8.75
2019-02-18T20:20:21.604Z,7.47
2019-02-18T20:22:50.127Z,7.67
2019-02-18T20:25:18.646Z,7.95
2019-02-18T20:27:47.659Z,7.20
2019-02-18T20:30:17.929Z,6.95
2019-02-18T20:32:46.446Z,8.20
2019-02-18T20:35:14.991Z,7.22
2019-02-18T20:37:43.518Z,7.22
2019-02-18T20:40:12.486Z,8.48
2019-02-18T20:42:41.508Z,6.67
2019-02-18T20:45:11.975Z,7.05
2019-02-18T20:47:40.512Z,6.97
2019-02-18T20:50:11.184Z,7.20
2019-02-18T20:52:39.776Z,6.55
2019-02-18T20:55:11.386Z,7.42
2019-02-18T20:57:39.980Z,6.50
2019-02-18T21:00:15.909Z,5.78
2019-02-18T21:02:44.504Z,6.95
2019-02-18T21:05:13.046Z,7.50
2019-02-18T21:07:41.711Z,6.50
2019-02-18T21:10:13.406Z,6.40
2019-02-18T21:12:41.931Z,5.70
2019-02-18T21:15:10.615Z,6.00
2019-02-18T21:17:39.211Z,5.30
2019-02-18T21:20:12.626Z,6.03
2019-02-18T21:22:41.312Z,6.30
2019-02-18T21:25:11.091Z,5.97
2019-02-18T21:27:39.610Z,6.87
2019-02-18T21:30:13.973Z,6.80
2019-02-18T21:32:42.559Z,5.58
2019-02-18T21:35:11.251Z,5.53
2019-02-18T21:37:40.136Z,5.83
2019-02-18T21:40:10.682Z,5.90
2019-02-18T21:42:39.368Z,5.75
2019-02-18T21:45:13.567Z,6.95
2019-02-18T21:47:42.182Z,5.80
2019-02-18T21:50:11.722Z,6.97
2019-02-18T21:52:40.627Z,6.83
2019-02-18T21:55:11.385Z,6.53
2019-02-18T21:57:39.975Z,5.50
2019-02-18T22:00:21.805Z,5.67
2019-02-18T22:02:50.472Z,5.20
2019-02-18T22:05:19.451Z,6.87
2019-02-18T22:07:47.984Z,6.62
2019-02-18T22:10:16.667Z,5.70
2019-02-18T22:12:45.258Z,5.78
2019-02-18T22:15:15.122Z,6.22
2019-02-18T22:17:43.734Z,6.92
2019-02-18T22:20:14.208Z,6.75
2019-02-18T22:22:43.001Z,6.33
2019-02-18T22:25:13.060Z,5.58
2019-02-18T22:27:41.606Z,6.33
2019-02-18T22:30:14.659Z,5.85
2019-02-18T22:32:43.274Z,4.80
2019-02-18T22:35:12.141Z,6.72
2019-02-18T22:37:40.862Z,6.10
2019-02-18T22:40:11.487Z,6.95
2019-02-18T22:42:40.176Z,8.23
2019-02-18T22:45:12.336Z,9.30
2019-02-18T22:47:40.935Z,9.35
2019-02-18T22:50:11.129Z,10.23
2019-02-18T22:52:40.000Z,14.65
2019-02-18T22:55:09.887Z,18.87
2019-02-18T22:57:38.579Z,16.12
2019-02-18T23:00:23.770Z,17.45
2019-02-18T23:02:52.300Z,19.32
2019-02-18T23:05:20.913Z,19.25
2019-02-18T23:07:49.503Z,17.77
2019-02-18T23:10:18.038Z,13.58
2019-02-18T23:12:46.596Z,13.98
2019-02-18T23:15:15.275Z,14.60
2019-02-18T23:17:43.794Z,13.13
2019-02-18T23:20:12.682Z,10.43
2019-02-18T23:22:41.221Z,12.43
2019-02-18T23:25:09.823Z,13.13
2019-02-18T23:27:38.375Z,12.43
2019-02-18T23:30:07.848Z,14.78
2019-02-18T23:32:36.398Z,12.55
2019-02-18T23:35:05.878Z,11.08
2019-02-18T23:37:34.979Z,12.63
2019-02-18T23:40:04.410Z,9.10
2019-02-18T23:42:33.219Z,9.03
2019-02-18T23:45:01.751Z,7.65
2019-02-18T23:47:30.346Z,7.45
2019-02-18T23:49:58.879Z,8.40
2019-02-18T23:52:27.427Z,9.45
2019-02-18T23:54:55.972Z,7.28
2019-02-18T23:57:24.503Z,6.70
2019-02-18T23:59:53.043Z,7.03
